Date,TemperatureHighF,TemperatureAvgF,TemperatureLowF,DewpointHighF,DewpointAvgF,DewpointLowF,HumidityHigh,HumidityAvg,HumidityLow,PressureMaxIn,PressureMinIn,WindSpeedMaxMPH,WindSpeedAvgMPH,GustSpeedMaxMPH,PrecipitationSumIn
2013-2-1,32.8,25.0,18.6,27.8,15.1,9.0,91,67,44,30.45,30.18,8,2,13,0.00
2013-2-2,46.8,34.0,22.4,33.2,25.3,14.6,90,71,54,30.30,30.05,7,2,15,0.05
2013-2-3,52.6,40.9,27.8,32.8,28.8,24.5,91,64,35,30.12,29.98,8,3,16,0.00
2013-2-4,55.4,41.4,26.9,36.7,29.3,23.0,95,66,31,30.08,29.92,6,2,11,0.00
2013-2-5,64.3,50.8,40.5,45.1,39.7,35.4,92,68,38,30.05,29.90,5,1,9,0.00
2013-2-6,61.5,46.6,33.2,41.4,35.9,31.3,97,69,35,30.21,30.05,4,1,8,0.00
2013-2-7,63.4,52.3,41.9,48.5,42.9,34.6,92,71,56,30.11,29.91,6,1,10,0.00
2013-2-8,51.0,43.7,35.5,48.0,38.4,28.7,98,82,64,30.31,29.88,7,4,16,0.11
2013-2-9,56.3,42.6,32.7,36.7,31.0,27.6,82,66,36,30.35,30.15,4,1,11,0.00
2013-2-10,58.0,52.7,48.0,57.7,44.4,31.7,99,76,47,30.17,29.85,8,4,16,0.49
2013-2-11,58.7,50.4,40.8,58.3,39.7,26.6,99,69,36,30.18,29.94,6,2,10,0.01
2013-2-12,52.0,43.7,36.3,40.7,35.6,32.2,93,75,50,30.16,29.80,4,0,7,0.02
2013-2-13,43.1,40.6,34.6,42.2,38.0,31.7,99,90,80,30.04,29.69,6,2,11,0.09
2013-2-14,60.4,45.3,31.2,40.9,33.6,25.8,98,68,27,30.08,30.00,8,2,16,0.00
2013-2-15,52.0,44.5,33.5,37.4,31.9,20.7,79,62,43,30.16,30.02,6,2,10,0.00
2013-2-16,39.2,30.9,22.9,21.6,16.2,8.1,82,56,31,30.24,30.12,9,2,16,0.00
2013-2-17,48.3,34.9,19.5,22.2,16.4,11.2,78,49,26,30.32,30.18,6,2,11,0.00
2013-2-18,62.4,49.1,38.2,44.9,30.8,18.9,94,51,35,30.21,29.86,10,6,21,0.29
2013-2-19,49.6,42.3,27.3,46.9,28.8,12.3,97,64,24,30.23,29.88,10,4,22,0.32
2013-2-20,36.5,29.8,21.6,22.2,17.6,14.7,82,61,44,30.34,30.22,4,2,7,0.00
2013-2-21,49.6,38.5,28.2,47.8,28.3,16.4,99,69,35,30.23,29.86,5,1,9,0.39
2013-2-22,60.1,52.2,46.1,49.3,47.5,41.2,98,85,59,30.04,29.87,6,3,10,0.32
2013-2-23,53.5,42.9,33.1,41.2,35.3,28.8,94,75,52,30.02,29.89,5,2,8,0.00
2013-2-24,56.3,40.2,28.2,30.3,27.3,23.0,93,65,29,30.12,29.99,4,1,7,0.00
2013-2-25,63.4,47.5,30.9,47.6,34.2,25.4,89,62,29,30.00,29.51,5,2,12,0.01
2013-2-26,52.3,45.6,39.2,48.5,41.3,33.8,98,85,65,29.75,29.39,11,5,19,0.27
2013-2-27,44.1,40.0,37.3,35.1,31.9,29.7,85,73,63,29.93,29.75,7,4,16,0.01
2013-2-28,39.2,36.6,34.7,31.2,27.3,24.8,81,69,61,30.10,29.88,7,3,11,0.01